Time;durP1;ratioP1;P1;durP2;ratioP2;P2;SDS_P1;SDS_P2;PMS_P1;PMS_P2;Temp;Humidity;BMP_temperature;BMP_pressure;BME280_temperature;BME280_humidity;BME280_pressure;Samples;Min_cycle;Max_cycle;Signal;HPM_P1;HPM_P2
2023/11/02 00:02:21;;;;;;;0.77;0.77;;;;;;;4.15;91.71;96975.31;5008365;28;20121;-79
2023/11/02 00:04:48;;;;;;;0.80;0.80;;;;;;;4.37;92.09;96972.38;5007202;28;20041;-79
2023/11/02 00:07:13;;;;;;;0.90;0.90;;;;;;;4.13;91.40;96972.63;5006417;28;20496;-80
2023/11/02 00:09:39;;;;;;;0.80;0.80;;;;;;;3.93;92.36;96958.94;4990705;28;20068;-80
2023/11/02 00:12:13;;;;;;;0.80;0.80;;;;;;;3.79;92.43;96953.28;4989940;28;20041;-80
2023/11/02 00:14:52;;;;;;;0.80;0.80;;;;;;;3.76;92.94;96947.91;4989205;28;20033;-80
2023/11/02 00:17:30;;;;;;;0.85;0.85;;;;;;;3.79;92.34;96949.75;5001486;28;20080;-81
2023/11/02 00:19:56;;;;;;;0.85;0.85;;;;;;;3.83;92.71;96928.78;4988295;28;20034;-80
2023/11/02 00:22:21;;;;;;;0.82;0.82;;;;;;;3.93;92.65;96911.44;5012470;28;20038;-81
2023/11/02 00:24:49;;;;;;;0.80;0.80;;;;;;;3.90;92.51;96903.44;5008461;28;20041;-80
2023/11/02 00:27:15;;;;;;;0.80;0.80;;;;;;;3.93;92.31;96911.44;4989318;28;20679;-81
2023/11/02 00:29:41;;;;;;;0.90;0.90;;;;;;;3.96;92.41;96907.97;5001646;28;20444;-81
2023/11/02 00:32:10;;;;;;;0.80;0.80;;;;;;;3.72;92.51;96893.31;4993063;28;20068;-82
2023/11/02 00:34:39;;;;;;;0.80;0.80;;;;;;;3.64;92.58;96886.03;5008410;28;20601;-81
2023/11/02 00:37:06;;;;;;;0.80;0.80;;;;;;;3.47;93.16;96899.69;5001457;28;20040;-81
2023/11/02 00:39:31;;;;;;;0.80;0.80;;;;;;;3.39;93.40;96889.78;5018052;28;20045;-80
2023/11/02 00:41:57;;;;;;;0.80;0.80;;;;;;;3.29;93.06;96886.88;4982145;28;20079;-81
2023/11/02 00:44:26;;;;;;;0.80;0.80;;;;;;;3.39;93.37;96887.13;4998620;28;20065;-81
2023/11/02 00:46:52;;;;;;;0.80;0.80;;;;;;;3.24;93.46;96877.97;4990916;28;20410;-81
2023/11/02 00:49:23;;;;;;;0.80;0.80;;;;;;;3.39;93.72;96879.22;4996865;28;20033;-82
2023/11/02 00:51:57;;;;;;;0.80;0.80;;;;;;;3.21;93.46;96879.63;4992360;28;20125;-81
2023/11/02 00:54:58;;;;;;;0.80;0.80;;;;;;;3.33;93.28;96853.59;4974561;28;20065;-81
2023/11/02 00:57:40;;;;;;;0.80;0.80;;;;;;;3.22;93.47;96845.41;4971613;28;20050;-81
2023/11/02 01:00:06;;;;;;;0.80;0.80;;;;;;;3.06;93.27;96836.19;4993167;28;20034;-82
2023/11/02 01:02:35;;;;;;;0.80;0.80;;;;;;;3.40;93.64;96820.38;4987435;28;20059;-83
2023/11/02 01:05:03;;;;;;;0.80;0.80;;;;;;;3.35;93.44;96822.91;4999651;28;20038;-81
2023/11/02 01:07:29;;;;;;;0.90;0.90;;;;;;;3.26;93.63;96827.97;4972771;28;20096;-80
2023/11/02 01:09:59;;;;;;;0.85;0.85;;;;;;;3.28;93.43;96815.69;4992606;28;20488;-81
2023/11/02 01:12:31;;;;;;;0.85;0.85;;;;;;;3.45;93.70;96814.41;4990550;28;20062;-80
2023/11/02 01:14:57;;;;;;;0.90;0.90;;;;;;;3.48;93.33;96808.31;4992057;28;20100;-80
2023/11/02 01:17:33;;;;;;;0.80;0.80;;;;;;;3.80;93.36;96807.38;4993396;28;20487;-80
2023/11/02 01:20:09;;;;;;;0.90;0.90;;;;;;;4.49;91.13;96793.09;5013945;28;20038;-80
2023/11/02 01:22:58;;;;;;;0.88;0.88;;;;;;;5.57;85.78;96788.13;4991122;28;20041;-80
2023/11/02 01:25:27;;;;;;;0.90;0.90;;;;;;;5.97;83.70;96770.28;5010817;28;20049;-81
2023/11/02 01:27:58;;;;;;;0.82;0.82;;;;;;;6.62;81.33;96773.00;4989393;28;20109;-81
2023/11/02 01:30:36;;;;;;;0.80;0.80;;;;;;;7.08;78.23;96761.16;5011156;28;20038;-81
2023/11/02 01:33:07;;;;;;;0.80;0.80;;;;;;;6.25;81.91;96766.28;5011238;28;20046;-79
2023/11/02 01:35:39;;;;;;;0.80;0.80;;;;;;;5.45;85.26;96748.25;5000657;28;20041;-80
2023/11/02 01:38:06;;;;;;;0.80;0.80;;;;;;;5.00;87.14;96743.94;4985520;28;20061;-82
2023/11/02 01:40:41;;;;;;;0.80;0.80;;;;;;;4.70;88.21;96750.41;5003967;28;20034;-81
2023/11/02 01:43:12;;;;;;;0.80;0.80;;;;;;;4.48;88.54;96737.63;5013384;28;20550;-80
2023/11/02 01:45:41;;;;;;;0.80;0.80;;;;;;;4.51;89.01;96719.22;4999495;28;20042;-80
2023/11/02 01:48:16;;;;;;;0.80;0.80;;;;;;;4.94;87.74;96713.00;4995942;28;20045;-80
2023/11/02 01:51:03;;;;;;;0.80;0.80;;;;;;;6.83;78.76;96699.03;5022648;28;20033;-82
2023/11/02 01:53:48;;;;;;;0.80;0.80;;;;;;;6.51;81.20;96690.69;4996569;28;20033;-80
2023/11/02 01:56:41;;;;;;;0.80;0.80;;;;;;;5.85;84.19;96691.59;5008804;28;20042;-81
2023/11/02 01:59:23;;;;;;;0.80;0.80;;;;;;;5.99;83.16;96682.13;5011110;28;20049;-81
2023/11/02 02:02:10;;;;;;;0.80;0.80;;;;;;;5.94;83.09;96672.31;5022111;23;20062;-79
2023/11/02 02:04:57;;;;;;;0.82;0.82;;;;;;;6.03;82.51;96667.13;4985667;28;20096;-80
2023/11/02 02:07:31;;;;;;;0.70;0.70;;;;;;;6.12;83.01;96661.97;5002326;28;20136;-79
2023/11/02 02:10:15;;;;;;;0.70;0.70;;;;;;;7.31;76.41;96652.66;4993674;28;20081;-79
2023/11/02 02:12:53;;;;;;;0.70;0.70;;;;;;;7.85;73.94;96635.34;4991318;28;20103;-78
2023/11/02 02:15:47;;;;;;;0.70;0.70;;;;;;;7.93;73.74;96633.63;4990645;28;20794;-80
2023/11/02 02:18:21;;;;;;;0.70;0.70;;;;;;;8.30;71.85;96628.50;4988821;28;20136;-79
2023/11/02 02:20:50;;;;;;;0.70;0.70;;;;;;;8.38;70.84;96629.44;5005801;28;20113;-79
2023/11/02 02:23:28;;;;;;;0.68;0.68;;;;;;;8.21;72.43;96624.03;4972731;28;20054;-79
2023/11/02 02:26:46;;;;;;;0.60;0.60;;;;;;;8.72;69.74;96610.94;4988850;28;20042;-79
2023/11/02 02:29:26;;;;;;;0.60;0.60;;;;;;;8.77;69.49;96614.50;4993684;28;20052;-79
2023/11/02 02:32:10;;;;;;;0.70;0.70;;;;;;;8.71;69.38;96595.88;5002786;28;20037;-78
2023/11/02 02:35:02;;;;;;;0.60;0.60;;;;;;;8.58;70.89;96596.75;4991251;28;20037;-78
2023/11/02 02:37:46;;;;;;;0.65;0.65;;;;;;;8.57;69.95;96587.84;5011355;28;20037;-79
2023/11/02 02:40:17;;;;;;;0.70;0.70;;;;;;;9.15;67.63;96589.69;5009831;28;20058;-77
2023/11/02 02:42:47;;;;;;;0.70;0.70;;;;;;;8.99;67.74;96581.72;5005010;28;20049;-77
2023/11/02 02:45:14;;;;;;;0.60;0.60;;;;;;;9.03;68.04;96569.31;4983520;28;20042;-77
2023/11/02 02:47:41;;;;;;;0.70;0.70;;;;;;;9.08;68.53;96561.34;4990347;28;20040;-79
2023/11/02 02:50:12;;;;;;;0.60;0.60;;;;;;;9.14;67.23;96561.34;5002349;28;20125;-79
2023/11/02 02:52:41;;;;;;;0.60;0.60;;;;;;;9.35;66.10;96556.00;5008245;28;20038;-77
2023/11/02 02:55:09;;;;;;;0.65;0.65;;;;;;;9.14;67.16;96561.34;5007270;28;20061;-78
2023/11/02 02:57:41;;;;;;;0.65;0.65;;;;;;;9.19;67.21;96548.91;5011107;28;20038;-78
2023/11/02 03:00:08;;;;;;;0.60;0.60;;;;;;;9.24;66.78;96549.78;5007695;28;20045;-77
2023/11/02 03:02:34;;;;;;;0.60;0.60;;;;;;;9.11;67.99;96545.38;5007468;28;20144;-77
2023/11/02 03:05:01;;;;;;;0.60;0.60;;;;;;;9.14;68.11;96529.41;4999889;28;20111;-78
2023/11/02 03:07:30;;;;;;;0.70;0.70;;;;;;;8.96;68.31;96533.88;5008778;28;20549;-76
2023/11/02 03:10:00;;;;;;;0.60;0.60;;;;;;;9.12;67.52;96509.91;5002702;28;20761;-78
2023/11/02 03:12:34;;;;;;;0.60;0.60;;;;;;;8.89;68.59;96525.88;5006962;28;20140;-79
2023/11/02 03:15:04;;;;;;;0.60;0.60;;;;;;;8.89;69.30;96520.56;5008549;28;20049;-76
2023/11/02 03:17:50;;;;;;;0.60;0.60;;;;;;;8.85;69.25;96522.31;4989892;28;20396;-79
2023/11/02 03:20:17;;;;;;;0.60;0.60;;;;;;;8.89;69.19;96499.28;4981405;28;20479;-78
2023/11/02 03:22:43;;;;;;;0.60;0.60;;;;;;;8.80;70.18;96504.59;5007730;28;20037;-77
2023/11/02 03:25:13;;;;;;;0.60;0.60;;;;;;;8.88;69.83;96516.13;5008886;28;20662;-79
2023/11/02 03:28:27;;;;;;;0.60;0.60;;;;;;;8.77;70.47;96537.41;5008926;28;20129;-77
2023/11/02 03:30:58;;;;;;;0.60;0.60;;;;;;;8.61;71.26;96540.91;4969500;28;20750;-79
2023/11/02 03:33:34;;;;;;;0.60;0.60;;;;;;;8.68;71.48;96534.75;4984390;28;20048;-78
2023/11/02 03:36:19;;;;;;;0.60;0.60;;;;;;;8.83;70.66;96540.06;5004396;28;20042;-78
2023/11/02 03:39:03;;;;;;;0.60;0.60;;;;;;;8.77;72.41;96523.19;5011415;28;20072;-79
2023/11/02 03:41:40;;;;;;;0.60;0.60;;;;;;;8.63;72.51;96532.06;5006101;28;20120;-79
2023/11/02 03:44:45;;;;;;;0.60;0.60;;;;;;;8.75;71.87;96509.91;5006094;28;20121;-78
2023/11/02 03:47:23;;;;;;;0.60;0.60;;;;;;;8.77;72.20;96516.13;5009913;28;20136;-79
2023/11/02 03:50:01;;;;;;;0.60;0.60;;;;;;;9.06;70.15;96510.81;5006683;28;20048;-78
2023/11/02 03:52:58;;;;;;;0.60;0.60;;;;;;;9.02;70.87;96486.88;5009363;28;20076;-79
2023/11/02 03:55:44;;;;;;;0.60;0.60;;;;;;;9.02;71.14;96469.16;5004377;28;20042;-79
2023/11/02 03:58:31;;;;;;;0.60;0.60;;;;;;;9.13;70.25;96447.84;5010492;28;20487;-78
2023/11/02 04:01:19;;;;;;;0.60;0.60;;;;;;;9.10;70.76;96456.72;5009914;28;20117;-80
2023/11/02 04:03:50;;;;;;;0.70;0.70;;;;;;;9.17;70.17;96458.47;4990402;28;20052;-79
2023/11/02 04:06:30;;;;;;;0.50;0.50;;;;;;;9.20;70.45;96461.13;5007678;28;20037;-79
2023/11/02 04:09:03;;;;;;;0.60;0.60;;;;;;;9.27;69.92;96453.13;5007871;28;20057;-78
2023/11/02 04:11:33;;;;;;;0.70;0.70;;;;;;;9.12;70.67;96451.41;5011557;28;20052;-78
2023/11/02 04:14:12;;;;;;;0.60;0.60;;;;;;;9.00;71.95;96441.66;5003831;28;20030;-78
2023/11/02 04:16:38;;;;;;;0.60;0.60;;;;;;;8.98;72.26;96433.69;5007249;28;20045;-77
2023/11/02 04:19:04;;;;;;;0.60;0.60;;;;;;;8.98;72.76;96432.78;5006522;28;20714;-78
2023/11/02 04:21:31;;;;;;;0.60;0.60;;;;;;;8.84;73.60;96429.28;5004432;28;20045;-78
2023/11/02 04:23:56;;;;;;;0.70;0.70;;;;;;;8.91;73.51;96415.97;5005615;28;20620;-78
2023/11/02 04:26:22;;;;;;;0.60;0.60;;;;;;;8.98;73.29;96395.56;5007914;28;20045;-77
2023/11/02 04:28:48;;;;;;;0.60;0.60;;;;;;;8.97;73.96;96384.03;5006795;28;20034;-77
2023/11/02 04:31:13;;;;;;;0.60;0.60;;;;;;;8.84;75.13;96369.00;4994702;28;20049;-78
2023/11/02 04:33:39;;;;;;;0.70;0.70;;;;;;;8.85;75.23;96346.84;5013142;28;20045;-78
2023/11/02 04:36:04;;;;;;;0.60;0.60;;;;;;;8.83;74.79;96343.31;5006848;28;20037;-77
2023/11/02 04:38:30;;;;;;;0.70;0.70;;;;;;;8.97;74.23;96320.22;4991821;28;20044;-77
2023/11/02 04:40:55;;;;;;;0.70;0.70;;;;;;;9.00;74.00;96304.22;5010900;28;20045;-78
2023/11/02 04:43:21;;;;;;;0.60;0.60;;;;;;;9.09;73.11;96281.16;5011907;28;20045;-77
2023/11/02 04:45:47;;;;;;;0.70;0.70;;;;;;;9.11;73.26;96274.94;5007588;28;20993;-78
2023/11/02 04:48:13;;;;;;;0.70;0.70;;;;;;;9.22;72.86;96253.59;5003498;28;20037;-77
2023/11/02 04:50:38;;;;;;;0.70;0.70;;;;;;;9.34;71.71;96245.56;5005286;28;20052;-77
2023/11/02 04:53:04;;;;;;;0.70;0.70;;;;;;;9.32;71.98;96219.84;4988641;28;20068;-78
2023/11/02 04:55:29;;;;;;;0.60;0.60;;;;;;;9.43;70.85;96205.56;5008290;28;20072;-76
2023/11/02 04:57:55;;;;;;;0.60;0.60;;;;;;;9.52;70.31;96199.28;5003473;28;20044;-77
2023/11/02 05:00:21;;;;;;;0.60;0.60;;;;;;;9.69;69.54;96194.72;5006189;28;20049;-78
2023/11/02 05:02:48;;;;;;;0.60;0.60;;;;;;;9.65;69.21;96206.31;5011262;28;20161;-77
2023/11/02 05:05:13;;;;;;;0.60;0.60;;;;;;;9.64;69.42;96196.56;5011006;28;20041;-78
2023/11/02 05:07:39;;;;;;;0.60;0.60;;;;;;;9.58;70.40;96190.38;5007763;28;20045;-78
2023/11/02 05:10:05;;;;;;;0.60;0.60;;;;;;;9.58;69.24;96193.03;5009682;28;20035;-77
2023/11/02 05:12:30;;;;;;;0.55;0.55;;;;;;;9.58;69.43;96180.63;5009107;28;20061;-77
2023/11/02 05:14:56;;;;;;;0.60;0.60;;;;;;;9.62;69.29;96160.19;5012211;28;20759;-79
2023/11/02 05:17:21;;;;;;;0.60;0.60;;;;;;;9.66;69.10;96167.25;5013482;28;20037;-78
2023/11/02 05:19:46;;;;;;;0.60;0.60;;;;;;;9.70;68.50;96176.97;5012376;28;20073;-79
2023/11/02 05:22:12;;;;;;;0.60;0.60;;;;;;;9.72;68.53;96184.03;5011070;28;20411;-79
2023/11/02 05:24:37;;;;;;;0.60;0.60;;;;;;;9.96;67.35;96166.94;4998379;28;20033;-79
2023/11/02 05:27:03;;;;;;;0.60;0.60;;;;;;;9.95;66.86;96161.66;5011638;28;20037;-78
2023/11/02 05:29:29;;;;;;;0.60;0.60;;;;;;;10.07;66.79;96160.66;5009893;28;20224;-79
2023/11/02 05:31:55;;;;;;;0.60;0.60;;;;;;;10.07;66.42;96147.34;5011436;28;20030;-78
2023/11/02 05:34:20;;;;;;;0.60;0.60;;;;;;;10.19;65.50;96136.53;5012001;28;20115;-77
2023/11/02 05:36:47;;;;;;;0.50;0.50;;;;;;;10.19;65.24;96112.56;5008774;28;20121;-79
2023/11/02 05:39:13;;;;;;;0.60;0.60;;;;;;;10.16;65.65;96116.16;5014398;28;20527;-78
2023/11/02 05:41:38;;;;;;;0.60;0.60;;;;;;;10.14;65.35;96095.75;5012430;28;20079;-78
2023/11/02 05:44:05;;;;;;;0.60;0.60;;;;;;;10.23;65.12;96077.88;5010017;28;20034;-78
2023/11/02 05:46:31;;;;;;;0.60;0.60;;;;;;;10.48;63.25;96059.81;5010017;28;20124;-77
2023/11/02 05:48:56;;;;;;;0.60;0.60;;;;;;;10.26;65.24;96071.66;5015777;28;20124;-77
2023/11/02 05:51:22;;;;;;;0.60;0.60;;;;;;;10.31;64.20;96064.50;5015046;28;20737;-78
2023/11/02 05:53:48;;;;;;;0.60;0.60;;;;;;;10.39;63.91;96062.59;5014706;28;20069;-77
2023/11/02 05:56:16;;;;;;;0.60;0.60;;;;;;;10.42;63.73;96075.00;4995935;28;20057;-78
2023/11/02 05:58:42;;;;;;;0.50;0.50;;;;;;;10.42;63.95;96067.00;5014321;28;20038;-78
2023/11/02 06:01:08;;;;;;;0.60;0.60;;;;;;;10.54;62.79;96061.53;5002842;28;20053;-78
2023/11/02 06:03:34;;;;;;;0.60;0.60;;;;;;;10.56;62.83;96065.03;5011451;28;20044;-79
2023/11/02 06:05:59;;;;;;;0.60;0.60;;;;;;;10.42;63.95;96064.34;5011121;28;20128;-77
2023/11/02 06:08:25;;;;;;;0.50;0.50;;;;;;;10.55;63.06;96059.75;4993818;28;20038;-77
2023/11/02 06:10:50;;;;;;;0.50;0.50;;;;;;;10.44;63.23;96052.78;5013106;28;20052;-76
2023/11/02 06:13:16;;;;;;;0.50;0.50;;;;;;;10.46;62.83;96048.28;5005460;28;20102;-78
2023/11/02 06:15:41;;;;;;;0.60;0.60;;;;;;;10.53;62.87;96073.94;5008559;28;20084;-78
2023/11/02 06:18:07;;;;;;;0.50;0.50;;;;;;;10.43;63.83;96082.09;5012430;28;20041;-77
2023/11/02 06:20:33;;;;;;;0.50;0.50;;;;;;;10.26;64.41;96090.31;5009332;28;20490;-78
2023/11/02 06:23:01;;;;;;;0.60;0.60;;;;;;;10.14;65.70;96093.97;5013886;28;20041;-78
2023/11/02 06:25:26;;;;;;;0.50;0.50;;;;;;;10.24;64.80;96108.97;5011856;28;20168;-78
2023/11/02 06:27:52;;;;;;;0.50;0.50;;;;;;;10.40;63.51;96115.00;4999673;28;20038;-77
2023/11/02 06:30:17;;;;;;;0.50;0.50;;;;;;;10.49;63.67;96138.91;5009039;28;20534;-79
2023/11/02 06:32:43;;;;;;;0.50;0.50;;;;;;;10.51;62.70;96173.53;4992826;28;20045;-78
2023/11/02 06:35:08;;;;;;;0.55;0.55;;;;;;;10.55;63.24;96193.91;5012188;28;20041;-77
2023/11/02 06:37:58;;;;;;;0.60;0.60;;;;;;;10.23;65.94;96255.50;4984567;28;20120;-79
2023/11/02 06:40:30;;;;;;;0.50;0.50;;;;;;;9.97;67.87;96269.97;5004965;28;20116;-77
2023/11/02 06:42:57;;;;;;;0.52;0.52;;;;;;;9.82;68.46;96253.19;4991155;28;20095;-77
2023/11/02 06:45:23;;;;;;;0.60;0.60;;;;;;;9.45;70.56;96251.69;5010708;28;20064;-77
2023/11/02 06:47:49;;;;;;;0.60;0.60;;;;;;;9.61;71.69;96240.94;4995540;28;20042;-78
2023/11/02 06:50:15;;;;;;;0.60;0.60;;;;;;;9.47;72.19;96235.72;5012973;28;20037;-77
2023/11/02 06:52:40;;;;;;;0.60;0.60;;;;;;;9.17;75.02;96236.78;5008608;28;20054;-76
2023/11/02 06:55:06;;;;;;;0.60;0.60;;;;;;;9.12;76.17;96236.81;4995545;28;20049;-77
2023/11/02 06:57:32;;;;;;;0.60;0.60;;;;;;;8.99;76.91;96240.41;5011369;28;20069;-77
2023/11/02 06:59:57;;;;;;;0.60;0.60;;;;;;;8.87;79.18;96238.72;5011823;28;20041;-77
2023/11/02 07:02:23;;;;;;;0.60;0.60;;;;;;;8.56;81.36;96234.38;5006312;28;20041;-77
2023/11/02 07:04:55;;;;;;;0.60;0.60;;;;;;;8.55;80.96;96245.91;5007993;28;20056;-77
2023/11/02 07:07:21;;;;;;;0.50;0.50;;;;;;;8.47;83.35;96244.16;4993594;28;20047;-77
2023/11/02 07:09:47;;;;;;;0.60;0.60;;;;;;;8.40;84.12;96244.19;5008025;28;20036;-77
2023/11/02 07:12:14;;;;;;;0.70;0.70;;;;;;;8.43;84.49;96241.50;5006765;28;20038;-77
2023/11/02 07:14:41;;;;;;;0.70;0.70;;;;;;;8.37;85.27;96231.78;5008503;28;20500;-77
2023/11/02 07:17:07;;;;;;;0.60;0.60;;;;;;;8.34;85.60;96218.50;5005328;28;20131;-76
2023/11/02 07:19:32;;;;;;;0.60;0.60;;;;;;;8.32;85.96;96211.41;5012643;28;20045;-77
2023/11/02 07:21:58;;;;;;;0.60;0.60;;;;;;;8.40;85.00;96196.38;5010015;28;20051;-77
2023/11/02 07:24:24;;;;;;;0.60;0.60;;;;;;;8.42;84.66;96200.78;5013622;28;20507;-77
2023/11/02 07:26:50;;;;;;;0.60;0.60;;;;;;;8.48;85.31;96203.44;5009137;28;20092;-77
2023/11/02 07:29:15;;;;;;;0.60;0.60;;;;;;;8.60;83.40;96199.81;5007684;28;20144;-77
2023/11/02 07:31:41;;;;;;;0.70;0.70;;;;;;;8.56;84.41;96214.00;5009264;28;20418;-77
2023/11/02 07:34:07;;;;;;;0.60;0.60;;;;;;;8.54;83.68;96220.25;4991508;28;20042;-76
2023/11/02 07:36:35;;;;;;;0.60;0.60;;;;;;;8.69;82.46;96205.09;5009335;28;20757;-76
2023/11/02 07:39:01;;;;;;;0.60;0.60;;;;;;;8.84;82.03;96195.28;5010745;28;20042;-76
2023/11/02 07:41:26;;;;;;;0.70;0.70;;;;;;;8.74;83.40;96181.16;4991803;28;20491;-77
2023/11/02 07:43:52;;;;;;;0.60;0.60;;;;;;;8.71;83.73;96175.84;5008911;28;20044;-76
2023/11/02 07:46:19;;;;;;;0.65;0.65;;;;;;;8.73;83.20;96174.09;4994661;28;20044;-77
2023/11/02 07:48:45;;;;;;;0.70;0.70;;;;;;;8.66;83.85;96165.25;4994741;28;20048;-77
2023/11/02 07:51:15;;;;;;;0.70;0.70;;;;;;;8.77;83.02;96159.91;5008322;28;20050;-77
2023/11/02 07:53:42;;;;;;;0.60;0.60;;;;;;;8.89;82.68;96151.84;5007656;28;20033;-77
2023/11/02 07:56:08;;;;;;;0.68;0.68;;;;;;;8.85;83.06;96146.53;4982790;28;20041;-76
2023/11/02 07:58:36;;;;;;;0.70;0.70;;;;;;;8.79;83.09;96133.28;5007655;28;20111;-77
2023/11/02 08:01:05;;;;;;;0.60;0.60;;;;;;;8.88;82.76;96115.50;5007404;28;20092;-77
2023/11/02 08:03:31;;;;;;;0.70;0.70;;;;;;;8.82;83.42;96102.25;5006618;28;20546;-76
2023/11/02 08:05:56;;;;;;;0.60;0.60;;;;;;;8.83;83.15;96093.38;5009581;28;20045;-77
2023/11/02 08:08:22;;;;;;;0.70;0.70;;;;;;;8.88;83.21;96088.03;5003618;28;20743;-77
2023/11/02 08:10:48;;;;;;;0.68;0.68;;;;;;;8.79;84.23;96081.00;5008827;28;20042;-76
2023/11/02 08:13:13;;;;;;;0.60;0.60;;;;;;;8.88;83.60;96072.97;4993973;28;20699;-76
2023/11/02 08:15:39;;;;;;;0.70;0.70;;;;;;;8.86;83.86;96065.88;5008479;28;20033;-76
2023/11/02 08:18:05;;;;;;;0.60;0.60;;;;;;;8.95;83.85;96056.06;4995021;28;20716;-76
2023/11/02 08:20:30;;;;;;;0.70;0.70;;;;;;;9.06;83.23;96058.66;5004552;28;20099;-76
2023/11/02 08:22:56;;;;;;;0.68;0.68;;;;;;;9.16;82.12;96048.81;4992702;28;20042;-76
2023/11/02 08:25:21;;;;;;;0.70;0.70;;;;;;;9.02;83.83;96043.63;5009441;28;20044;-76
2023/11/02 08:27:50;;;;;;;0.60;0.60;;;;;;;9.05;83.49;96040.03;5008540;28;20056;-77
2023/11/02 08:30:16;;;;;;;0.70;0.70;;;;;;;9.00;83.46;96026.78;5006926;28;20049;-78
2023/11/02 08:32:41;;;;;;;0.70;0.70;;;;;;;9.00;84.10;96037.41;5007538;28;20038;-76
2023/11/02 08:35:07;;;;;;;0.60;0.60;;;;;;;9.03;83.63;96029.41;5008434;28;20479;-77
2023/11/02 08:37:32;;;;;;;0.60;0.60;;;;;;;8.98;84.47;96015.28;5007937;28;20041;-76
2023/11/02 08:39:59;;;;;;;0.60;0.60;;;;;;;9.02;84.38;96017.03;5011245;28;20048;-77
2023/11/02 08:42:28;;;;;;;0.60;0.60;;;;;;;9.13;83.84;96024.91;5004299;28;20044;-76
2023/11/02 08:44:53;;;;;;;0.70;0.70;;;;;;;9.12;84.02;96023.16;5004376;28;20459;-78
2023/11/02 08:47:19;;;;;;;0.60;0.60;;;;;;;9.16;83.97;96024.88;5000348;28;20029;-78
2023/11/02 08:49:44;;;;;;;0.60;0.60;;;;;;;9.10;84.74;96032.91;4976034;28;20026;-79
2023/11/02 08:52:10;;;;;;;0.68;0.68;;;;;;;9.03;85.63;96025.88;4997814;28;20083;-79
2023/11/02 08:54:35;;;;;;;0.60;0.60;;;;;;;9.05;85.62;96022.28;5007352;28;20126;-79
2023/11/02 08:57:01;;;;;;;0.65;0.65;;;;;;;9.07;85.02;96024.97;4989464;28;20065;-79
2023/11/02 08:59:27;;;;;;;0.60;0.60;;;;;;;9.15;84.08;96015.13;5003610;28;20048;-79
2023/11/02 09:01:53;;;;;;;0.60;0.60;;;;;;;9.26;84.39;96021.25;5009340;28;20037;-79
2023/11/02 09:04:19;;;;;;;0.60;0.60;;;;;;;9.23;84.39;96013.28;5004635;28;20038;-79
2023/11/02 09:06:45;;;;;;;0.60;0.60;;;;;;;9.17;85.25;96023.97;5006622;28;20124;-79
2023/11/02 09:09:12;;;;;;;0.60;0.60;;;;;;;9.21;84.54;96009.75;4996670;28;20474;-79
2023/11/02 09:11:38;;;;;;;0.50;0.50;;;;;;;9.29;84.56;96013.22;5007005;28;20415;-79
2023/11/02 09:14:04;;;;;;;0.60;0.60;;;;;;;9.34;84.35;96003.44;4989607;28;20045;-78
2023/11/02 09:16:31;;;;;;;0.60;0.60;;;;;;;9.34;84.63;96005.19;5001787;28;20046;-76
2023/11/02 09:18:58;;;;;;;0.60;0.60;;;;;;;9.32;84.54;95996.34;4991808;28;20042;-77
2023/11/02 09:21:24;;;;;;;;;;;;;;;9.35;84.34;95999.88;5004841;28;20041;-77
2023/11/02 09:23:49;;;;;;;0.60;0.60;;;;;;;9.48;84.46;95997.94;5000743;28;19968;-76
2023/11/02 09:26:15;;;;;;;0.60;0.60;;;;;;;9.53;84.99;96006.75;5005028;28;20038;-77
2023/11/02 09:28:40;;;;;;;0.50;0.50;;;;;;;9.56;84.71;96004.06;5002630;28;20080;-77
2023/11/02 09:31:07;;;;;;;0.60;0.60;;;;;;;9.53;84.08;95993.44;5008290;28;20057;-76
2023/11/02 09:33:32;;;;;;;0.60;0.60;;;;;;;9.54;84.51;95986.38;4999290;28;20460;-78
2023/11/02 09:35:59;;;;;;;0.55;0.55;;;;;;;9.47;84.22;95989.09;4997823;28;20061;-77
2023/11/02 09:38:25;;;;;;;0.60;0.60;;;;;;;9.44;84.94;95996.25;5006719;28;20036;-77
2023/11/02 09:40:51;;;;;;;0.60;0.60;;;;;;;9.46;85.28;95987.31;4999134;28;20038;-79
2023/11/02 09:43:18;;;;;;;0.60;0.60;;;;;;;9.41;85.51;95989.16;5001568;28;20177;-77
2023/11/02 09:45:44;;;;;;;0.60;0.60;;;;;;;9.44;84.96;95998.91;5001305;28;20121;-77
2023/11/02 09:48:11;;;;;;;0.50;0.50;;;;;;;9.42;85.42;96006.00;4998087;28;20113;-77
2023/11/02 09:50:37;;;;;;;0.60;0.60;;;;;;;9.61;83.97;96025.31;5009059;28;20107;-77
2023/11/02 09:53:03;;;;;;;0.60;0.60;;;;;;;9.62;84.02;96030.63;5005024;28;20042;-77
2023/11/02 09:55:28;;;;;;;0.60;0.60;;;;;;;9.57;84.50;96028.91;5010416;28;20071;-78
2023/11/02 09:57:54;;;;;;;0.60;0.60;;;;;;;9.45;83.39;96038.78;5010290;28;20034;-78
2023/11/02 10:00:20;;;;;;;0.60;0.60;;;;;;;9.38;84.16;96066.34;5004674;28;20046;-79
2023/11/02 10:02:50;;;;;;;0.60;0.60;;;;;;;9.48;84.77;96078.66;5000460;28;20038;-77
2023/11/02 10:05:17;;;;;;;0.60;0.60;;;;;;;9.55;83.74;96097.25;4993655;28;20042;-78
2023/11/02 10:07:42;;;;;;;0.60;0.60;;;;;;;9.52;84.58;96103.47;5003394;28;20585;-77
2023/11/02 10:10:12;;;;;;;0.60;0.60;;;;;;;9.40;85.39;96096.50;5002146;28;20046;-77
2023/11/02 10:12:39;;;;;;;0.60;0.60;;;;;;;9.45;86.23;96089.34;5002032;28;20048;-77
2023/11/02 10:15:06;;;;;;;0.60;0.60;;;;;;;9.48;85.27;96093.75;5008615;28;20083;-77
2023/11/02 10:17:35;;;;;;;0.60;0.60;;;;;;;9.58;84.65;96098.13;5004047;28;20091;-77
2023/11/02 10:20:13;;;;;;;0.55;0.55;;;;;;;9.66;84.36;96092.69;5002792;28;20044;-77
2023/11/02 10:22:39;;;;;;;;;;;;;;;9.64;84.64;96081.19;5007343;28;20620;-77
2023/11/02 10:25:05;;;;;;;0.60;0.60;;;;;;;9.68;85.08;96082.94;5000431;28;19917;-77
2023/11/02 10:27:31;;;;;;;0.60;0.60;;;;;;;9.80;84.04;96073.94;5007477;28;20080;-76
2023/11/02 10:29:57;;;;;;;0.70;0.70;;;;;;;9.94;84.16;96083.53;5003822;28;20052;-77
2023/11/02 10:32:23;;;;;;;0.68;0.68;;;;;;;10.36;80.68;96075.97;5003244;28;20044;-76
2023/11/02 10:34:52;;;;;;;0.60;0.60;;;;;;;10.27;82.46;96087.63;5006526;28;20404;-78
2023/11/02 10:37:34;;;;;;;0.60;0.60;;;;;;;10.41;80.84;96068.78;5001481;28;20052;-78
2023/11/02 10:40:00;;;;;;;0.60;0.60;;;;;;;10.59;78.96;96048.09;5001487;28;20042;-78
2023/11/02 10:42:28;;;;;;;0.60;0.60;;;;;;;10.50;79.19;96041.13;5005771;28;20620;-78
2023/11/02 10:44:54;;;;;;;0.60;0.60;;;;;;;10.51;80.54;96043.78;5003638;28;20033;-77
2023/11/02 10:47:24;;;;;;;0.60;0.60;;;;;;;10.45;80.90;96043.88;5006964;28;20781;-78
2023/11/02 10:49:53;;;;;;;0.60;0.60;;;;;;;10.47;81.32;96041.16;4984239;28;20038;-77
2023/11/02 10:52:33;;;;;;;0.60;0.60;;;;;;;10.41;81.76;96036.81;5000628;28;20033;-77
2023/11/02 10:55:12;;;;;;;0.60;0.60;;;;;;;10.47;82.43;96033.19;5008293;28;20037;-77
2023/11/02 10:57:38;;;;;;;0.60;0.60;;;;;;;10.43;83.15;96037.66;5005700;28;20042;-78
2023/11/02 11:00:05;;;;;;;0.65;0.65;;;;;;;10.57;81.84;96031.25;5006576;28;20117;-77
2023/11/02 11:02:31;;;;;;;0.60;0.60;;;;;;;10.58;82.03;96017.03;5006933;28;20041;-78
2023/11/02 11:04:58;;;;;;;0.60;0.60;;;;;;;10.65;80.86;96008.91;5001125;28;20060;-77
2023/11/02 11:07:24;;;;;;;;;;;;;;;10.63;81.25;95985.84;5012717;28;20040;-77
2023/11/02 11:09:50;;;;;;;0.60;0.60;;;;;;;10.58;80.73;95985.91;5001104;28;19922;-76
2023/11/02 11:12:17;;;;;;;0.60;0.60;;;;;;;10.51;81.57;95969.13;5001931;28;20046;-78
2023/11/02 11:14:46;;;;;;;0.60;0.60;;;;;;;10.58;80.16;95985.03;5010417;28;20042;-77
2023/11/02 11:17:12;;;;;;;0.60;0.60;;;;;;;10.57;80.67;95993.94;5006020;28;20619;-78
2023/11/02 11:19:39;;;;;;;0.60;0.60;;;;;;;10.54;80.65;95973.56;4992917;28;20562;-78
2023/11/02 11:22:15;;;;;;;0.60;0.60;;;;;;;10.47;81.43;95985.19;5004909;28;20084;-77
2023/11/02 11:24:41;;;;;;;0.70;0.70;;;;;;;10.63;78.97;95970.72;5001646;28;20110;-78
2023/11/02 11:27:07;;;;;;;0.60;0.60;;;;;;;10.64;79.03;95980.50;4975699;28;20100;-78
2023/11/02 11:29:43;;;;;;;0.70;0.70;;;;;;;10.62;79.47;95978.75;5004855;28;20052;-78
2023/11/02 11:32:31;;;;;;;0.60;0.60;;;;;;;10.65;78.25;95973.38;5010123;28;20048;-78
2023/11/02 11:34:57;;;;;;;0.60;0.60;;;;;;;10.66;78.95;95986.69;5006596;28;20187;-77
2023/11/02 11:37:31;;;;;;;0.60;0.60;;;;;;;10.66;78.40;95989.34;5001308;28;20115;-78
2023/11/02 11:39:58;;;;;;;0.60;0.60;;;;;;;10.68;78.02;95998.22;5004278;28;20090;-79
2023/11/02 11:43:35;;;;;;;0.60;0.60;;;;;;;10.64;78.71;95974.28;4996916;28;20037;-78
2023/11/02 11:46:00;;;;;;;0.60;0.60;;;;;;;10.53;79.12;95991.31;4975813;28;20477;-77
2023/11/02 11:48:31;;;;;;;0.50;0.50;;;;;;;10.50;79.01;95987.81;5003178;28;20037;-78
2023/11/02 11:50:57;;;;;;;0.60;0.60;;;;;;;10.48;78.79;95990.50;4981415;28;20050;-78
2023/11/02 11:53:23;;;;;;;0.60;0.60;;;;;;;10.41;78.68;95993.28;5002502;28;20490;-78
2023/11/02 11:55:50;;;;;;;0.70;0.70;;;;;;;10.50;77.77;95956.72;5008132;28;20030;-78